ANZ523 NZQN-NZWN
Flight info
| Callsign | ANZ523 |
|---|---|
| Flight time | N/A |
| Altitude | 33000 |
| Route | TIMJO Y153 DOPKI Y533 GRETA Y393 WARDS |
| Aircraft | A320/M-SDE3FGHIRWY/LB1 |
Departure
| Time | 2026-05-01 08:45 |
|---|---|
| Airport | Queenstown Airport (NZQN) |
Arrival
| Time | N/A |
|---|---|
| Airport | Wellington International Airport (NZWN) |
| Time | Latitude | Longitude | Altitude | Speed | Heading |
|---|---|---|---|---|---|
| 2026-05-01 08:19 | -45.02108 | 168.73964 | 1165 ft | 0 kts | 206° |
| 2026-05-01 08:37 | -45.02101 | 168.73970 | 1163 ft | 3 kts | 204° |
| 2026-05-01 08:37 | -45.02089 | 168.73977 | 1164 ft | 3 kts | 200° |
| 2026-05-01 08:38 | -45.02069 | 168.73986 | 1162 ft | 3 kts | 192° |
| 2026-05-01 08:38 | -45.02050 | 168.73990 | 1163 ft | 3 kts | 183° |
| 2026-05-01 08:38 | -45.02029 | 168.73990 | 1165 ft | 3 kts | 172° |
| 2026-05-01 08:38 | -45.02015 | 168.73986 | 1163 ft | 1 kts | 165° |
| 2026-05-01 08:39 | -45.02011 | 168.73985 | 1163 ft | 0 kts | 165° |
| 2026-05-01 08:41 | -45.02026 | 168.73991 | 1163 ft | 4 kts | 164° |
| 2026-05-01 08:42 | -45.02038 | 168.74049 | 1163 ft | 11 kts | 59° |
| 2026-05-01 08:42 | -45.01950 | 168.74111 | 1164 ft | 16 kts | 23° |
| 2026-05-01 08:42 | -45.01894 | 168.74261 | 1166 ft | 21 kts | 75° |
| 2026-05-01 08:42 | -45.01855 | 168.74494 | 1167 ft | 28 kts | 77° |
| 2026-05-01 08:43 | -45.01808 | 168.74792 | 1166 ft | 34 kts | 77° |
| 2026-05-01 08:43 | -45.01758 | 168.75119 | 1167 ft | 34 kts | 77° |
| 2026-05-01 08:43 | -45.01703 | 168.75448 | 1168 ft | 33 kts | 78° |
| 2026-05-01 08:43 | -45.01667 | 168.75691 | 1166 ft | 19 kts | 78° |
| 2026-05-01 08:44 | -45.01656 | 168.75815 | 1167 ft | 9 kts | 35° |
| 2026-05-01 08:44 | -45.01651 | 168.75799 | 1165 ft | 1 kts | 248° |
| 2026-05-01 08:44 | -45.01651 | 168.75797 | 1163 ft | 0 kts | 255° |
| 2026-05-01 08:44 | -45.01656 | 168.75766 | 1168 ft | 17 kts | 257° |
| 2026-05-01 08:45 | -45.01745 | 168.75189 | 1168 ft | 99 kts | 257° |
| 2026-05-01 08:45 | -45.01940 | 168.73969 | 1252 ft | 146 kts | 258° |
| 2026-05-01 08:45 | -45.02140 | 168.72621 | 1993 ft | 138 kts | 259° |
| 2026-05-01 08:45 | -45.02340 | 168.71294 | 2591 ft | 139 kts | 255° |
| 2026-05-01 08:46 | -45.02754 | 168.70011 | 3083 ft | 152 kts | 237° |
| 2026-05-01 08:46 | -45.03487 | 168.68845 | 3539 ft | 163 kts | 220° |
| 2026-05-01 08:46 | -45.04475 | 168.68011 | 3987 ft | 170 kts | 203° |
| 2026-05-01 08:46 | -45.05642 | 168.67640 | 4399 ft | 175 kts | 185° |
| 2026-05-01 08:47 | -45.06866 | 168.67783 | 4825 ft | 180 kts | 167° |
| 2026-05-01 08:47 | -45.08031 | 168.68461 | 5257 ft | 184 kts | 148° |
| 2026-05-01 08:47 | -45.08958 | 168.69694 | 5714 ft | 184 kts | 126° |
| 2026-05-01 08:47 | -45.09623 | 168.71272 | 6167 ft | 185 kts | 127° |
| 2026-05-01 08:48 | -45.10552 | 168.72544 | 6559 ft | 188 kts | 146° |
| 2026-05-01 08:48 | -45.11669 | 168.73533 | 6983 ft | 189 kts | 156° |
| 2026-05-01 08:48 | -45.12885 | 168.74203 | 7418 ft | 186 kts | 169° |
| 2026-05-01 08:48 | -45.14192 | 168.74539 | 7630 ft | 199 kts | 180° |
| 2026-05-01 08:49 | -45.15645 | 168.74530 | 7733 ft | 222 kts | 188° |
| 2026-05-01 08:49 | -45.17284 | 168.74344 | 7877 ft | 250 kts | 188° |
| 2026-05-01 08:49 | -45.19108 | 168.74117 | 8212 ft | 275 kts | 188° |
| 2026-05-01 08:49 | -45.21050 | 168.73877 | 8891 ft | 282 kts | 191° |
| 2026-05-01 08:50 | -45.22940 | 168.73222 | 9775 ft | 279 kts | 204° |
| 2026-05-01 08:50 | -45.24662 | 168.71970 | 10570 ft | 280 kts | 218° |
| 2026-05-01 08:50 | -45.26137 | 168.70114 | 10998 ft | 292 kts | 232° |
| 2026-05-01 08:50 | -45.27233 | 168.67608 | 11296 ft | 308 kts | 248° |
| 2026-05-01 08:51 | -45.27850 | 168.64612 | 11607 ft | 324 kts | 263° |
| 2026-05-01 08:51 | -45.27883 | 168.61380 | 12185 ft | 331 kts | 277° |
| 2026-05-01 08:51 | -45.27281 | 168.58218 | 12906 ft | 334 kts | 292° |
| 2026-05-01 08:51 | -45.26084 | 168.55395 | 13662 ft | 337 kts | 308° |
| 2026-05-01 08:52 | -45.24371 | 168.53112 | 14440 ft | 340 kts | 323° |
| 2026-05-01 08:52 | -45.22271 | 168.51552 | 15143 ft | 343 kts | 338° |
| 2026-05-01 08:52 | -45.19918 | 168.50862 | 15672 ft | 354 kts | 356° |
| 2026-05-01 08:52 | -45.17463 | 168.51611 | 16011 ft | 372 kts | 23° |
| 2026-05-01 08:53 | -45.15401 | 168.53884 | 16515 ft | 384 kts | 48° |
| 2026-05-01 08:53 | -45.13825 | 168.56968 | 17047 ft | 389 kts | 52° |
| 2026-05-01 08:53 | -45.12214 | 168.60065 | 17620 ft | 392 kts | 50° |
| 2026-05-01 08:53 | -45.10525 | 168.63113 | 18218 ft | 395 kts | 49° |
| 2026-05-01 08:54 | -45.08775 | 168.66133 | 18794 ft | 398 kts | 47° |
| 2026-05-01 08:54 | -45.06992 | 168.69146 | 19316 ft | 401 kts | 47° |
| 2026-05-01 08:54 | -45.05188 | 168.72178 | 19829 ft | 404 kts | 47° |
| 2026-05-01 08:54 | -45.03370 | 168.75232 | 20346 ft | 407 kts | 48° |
| 2026-05-01 08:55 | -45.01518 | 168.78351 | 20874 ft | 411 kts | 48° |
| 2026-05-01 08:55 | -44.99679 | 168.81464 | 21376 ft | 414 kts | 48° |
| 2026-05-01 08:55 | -44.97836 | 168.84602 | 21870 ft | 417 kts | 49° |
| 2026-05-01 08:55 | -44.95983 | 168.87768 | 22350 ft | 420 kts | 49° |
| 2026-05-01 08:56 | -44.94118 | 168.90958 | 22817 ft | 423 kts | 49° |
| 2026-05-01 08:56 | -44.92237 | 168.94169 | 23274 ft | 426 kts | 49° |
| 2026-05-01 08:56 | -44.90339 | 168.97396 | 23730 ft | 429 kts | 49° |
| 2026-05-01 08:56 | -44.88427 | 169.00640 | 24169 ft | 432 kts | 49° |
| 2026-05-01 08:57 | -44.86501 | 169.03904 | 24552 ft | 435 kts | 49° |
| 2026-05-01 08:57 | -44.84561 | 169.07189 | 24945 ft | 437 kts | 49° |
| 2026-05-01 08:57 | -44.82610 | 169.10485 | 25345 ft | 439 kts | 49° |
| 2026-05-01 08:57 | -44.80648 | 169.13793 | 25732 ft | 441 kts | 49° |
| 2026-05-01 08:58 | -44.78672 | 169.17123 | 26109 ft | 444 kts | 49° |
| 2026-05-01 08:58 | -44.76687 | 169.20461 | 26473 ft | 446 kts | 49° |
| 2026-05-01 08:58 | -44.74691 | 169.23810 | 26839 ft | 448 kts | 49° |
| 2026-05-01 08:58 | -44.72681 | 169.27183 | 27203 ft | 450 kts | 49° |
| 2026-05-01 08:59 | -44.70667 | 169.30567 | 27562 ft | 453 kts | 49° |
| 2026-05-01 08:59 | -44.68638 | 169.33973 | 27932 ft | 455 kts | 49° |
| 2026-05-01 08:59 | -44.66600 | 169.37388 | 28308 ft | 458 kts | 49° |
| 2026-05-01 08:59 | -44.64550 | 169.40819 | 28685 ft | 460 kts | 49° |
| 2026-05-01 09:00 | -44.62485 | 169.44271 | 29043 ft | 462 kts | 49° |
| 2026-05-01 09:00 | -44.60412 | 169.47737 | 29391 ft | 465 kts | 49° |
| 2026-05-01 09:00 | -44.58326 | 169.51217 | 29739 ft | 467 kts | 49° |
| 2026-05-01 09:00 | -44.56198 | 169.54757 | 30091 ft | 470 kts | 49° |
| 2026-05-01 09:01 | -44.54089 | 169.58256 | 30564 ft | 469 kts | 49° |
| 2026-05-01 09:01 | -44.51986 | 169.61742 | 31023 ft | 468 kts | 49° |
| 2026-05-01 09:01 | -44.49888 | 169.65217 | 31462 ft | 466 kts | 50° |
| 2026-05-01 09:01 | -44.47797 | 169.68677 | 31895 ft | 465 kts | 50° |
| 2026-05-01 09:02 | -44.45850 | 169.72289 | 32325 ft | 464 kts | 58° |
| 2026-05-01 09:02 | -44.44264 | 169.76208 | 32769 ft | 462 kts | 62° |
| 2026-05-01 09:02 | -44.42748 | 169.80166 | 33219 ft | 461 kts | 62° |
| 2026-05-01 09:02 | -44.41226 | 169.84109 | 33518 ft | 461 kts | 62° |
| 2026-05-01 09:03 | -44.38134 | 169.92091 | 33575 ft | 475 kts | 62° |
| 2026-05-01 09:03 | -44.34949 | 170.00306 | 33576 ft | 484 kts | 62° |
| 2026-05-01 09:04 | -44.31730 | 170.08566 | 33571 ft | 484 kts | 62° |
| 2026-05-01 09:04 | -44.28502 | 170.16814 | 33567 ft | 484 kts | 62° |
| 2026-05-01 09:05 | -44.25278 | 170.25057 | 33565 ft | 484 kts | 62° |
| 2026-05-01 09:05 | -44.22050 | 170.33289 | 33565 ft | 484 kts | 62° |
| 2026-05-01 09:06 | -44.18805 | 170.41511 | 33568 ft | 484 kts | 62° |
| 2026-05-01 09:06 | -44.15552 | 170.49712 | 33570 ft | 484 kts | 62° |
| 2026-05-01 09:07 | -44.12301 | 170.57908 | 33567 ft | 483 kts | 62° |
| 2026-05-01 09:07 | -44.09051 | 170.66089 | 33569 ft | 483 kts | 62° |
| 2026-05-01 09:08 | -44.05800 | 170.74260 | 33571 ft | 483 kts | 62° |
| 2026-05-01 09:08 | -44.02520 | 170.82469 | 33570 ft | 482 kts | 62° |
| 2026-05-01 09:09 | -43.99255 | 170.90602 | 33572 ft | 482 kts | 62° |
| 2026-05-01 09:09 | -43.95997 | 170.98718 | 33572 ft | 481 kts | 62° |
| 2026-05-01 09:10 | -43.93284 | 171.05452 | 33569 ft | 481 kts | 62° |
| 2026-05-01 09:10 | -43.90012 | 171.13537 | 33573 ft | 480 kts | 62° |
| 2026-05-01 09:11 | -43.86745 | 171.21602 | 33571 ft | 480 kts | 62° |
| 2026-05-01 09:11 | -43.83475 | 171.29649 | 33570 ft | 479 kts | 62° |
| 2026-05-01 09:12 | -43.80202 | 171.37681 | 33565 ft | 479 kts | 62° |
| 2026-05-01 09:12 | -43.76925 | 171.45699 | 33564 ft | 478 kts | 62° |
| 2026-05-01 09:13 | -43.73618 | 171.53752 | 33565 ft | 478 kts | 62° |
| 2026-05-01 09:13 | -43.70330 | 171.61729 | 33563 ft | 477 kts | 62° |
| 2026-05-01 09:14 | -43.66822 | 171.69522 | 33561 ft | 478 kts | 58° |
| 2026-05-01 09:14 | -43.62986 | 171.77018 | 33562 ft | 478 kts | 56° |
| 2026-05-01 09:15 | -43.59101 | 171.84465 | 33557 ft | 478 kts | 57° |
| 2026-05-01 09:15 | -43.55299 | 171.91968 | 33554 ft | 477 kts | 57° |
| 2026-05-01 09:16 | -43.51538 | 171.99508 | 33560 ft | 477 kts | 57° |
| 2026-05-01 09:17 | -43.45874 | 172.10772 | 33561 ft | 477 kts | 57° |
| 2026-05-01 09:17 | -43.40181 | 172.21972 | 33561 ft | 476 kts | 57° |
| 2026-05-01 09:18 | -43.34500 | 172.33154 | 33565 ft | 475 kts | 57° |
| 2026-05-01 09:19 | -43.28601 | 172.44082 | 33570 ft | 477 kts | 47° |
| 2026-05-01 09:20 | -43.21527 | 172.53784 | 33573 ft | 477 kts | 47° |
| 2026-05-01 09:21 | -43.12131 | 172.66598 | 33581 ft | 476 kts | 47° |
| 2026-05-01 09:21 | -43.05105 | 172.76168 | 33584 ft | 475 kts | 47° |
| 2026-05-01 09:22 | -42.95740 | 172.88867 | 33330 ft | 475 kts | 47° |
| 2026-05-01 09:23 | -42.93401 | 172.92027 | 33037 ft | 473 kts | 47° |
| 2026-05-01 09:23 | -42.88716 | 172.98333 | 32525 ft | 473 kts | 47° |
| 2026-05-01 09:24 | -42.84025 | 173.04633 | 32071 ft | 474 kts | 47° |
| 2026-05-01 09:24 | -42.81674 | 173.07788 | 31877 ft | 474 kts | 47° |
| 2026-05-01 09:24 | -42.76978 | 173.14089 | 31602 ft | 474 kts | 47° |
| 2026-05-01 09:25 | -42.72277 | 173.20390 | 31417 ft | 475 kts | 47° |
| 2026-05-01 09:26 | -42.65216 | 173.29845 | 31319 ft | 475 kts | 47° |
| 2026-05-01 09:26 | -42.58152 | 173.39293 | 31099 ft | 475 kts | 46° |
| 2026-05-01 09:27 | -42.53434 | 173.45599 | 29979 ft | 476 kts | 46° |
| 2026-05-01 09:27 | -42.51060 | 173.48751 | 29335 ft | 478 kts | 46° |
| 2026-05-01 09:27 | -42.48670 | 173.51898 | 28845 ft | 480 kts | 45° |
| 2026-05-01 09:28 | -42.46237 | 173.55091 | 28091 ft | 482 kts | 45° |
| 2026-05-01 09:28 | -42.43827 | 173.58261 | 27365 ft | 484 kts | 45° |
| 2026-05-01 09:28 | -42.41410 | 173.61441 | 26780 ft | 486 kts | 45° |
| 2026-05-01 09:28 | -42.38987 | 173.64630 | 26227 ft | 487 kts | 45° |
| 2026-05-01 09:29 | -42.34158 | 173.70979 | 25074 ft | 481 kts | 45° |
| 2026-05-01 09:29 | -42.31768 | 173.74120 | 24404 ft | 477 kts | 45° |
| 2026-05-01 09:30 | -42.27050 | 173.80315 | 22995 ft | 470 kts | 44° |
| 2026-05-01 09:30 | -42.24705 | 173.83361 | 22321 ft | 466 kts | 44° |
| 2026-05-01 09:30 | -42.20018 | 173.89312 | 21082 ft | 459 kts | 43° |
| 2026-05-01 09:31 | -42.17683 | 173.92223 | 20546 ft | 456 kts | 42° |
| 2026-05-01 09:31 | -42.15367 | 173.95130 | 20179 ft | 454 kts | 43° |
| 2026-05-01 09:31 | -42.10832 | 174.01000 | 19321 ft | 449 kts | 44° |
| 2026-05-01 09:32 | -42.08639 | 174.03973 | 18631 ft | 446 kts | 45° |
| 2026-05-01 09:32 | -42.04345 | 174.09903 | 17481 ft | 438 kts | 45° |
| 2026-05-01 09:32 | -42.02200 | 174.12789 | 16972 ft | 435 kts | 44° |
| 2026-05-01 09:33 | -42.00035 | 174.15601 | 16310 ft | 430 kts | 43° |
| 2026-05-01 09:33 | -41.97857 | 174.18326 | 15688 ft | 425 kts | 41° |
| 2026-05-01 09:33 | -41.93506 | 174.23602 | 14662 ft | 418 kts | 41° |
| 2026-05-01 09:34 | -41.91386 | 174.26263 | 14057 ft | 415 kts | 43° |
| 2026-05-01 09:34 | -41.89340 | 174.28960 | 13356 ft | 409 kts | 44° |
| 2026-05-01 09:34 | -41.85520 | 174.34106 | 12230 ft | 363 kts | 44° |
| 2026-05-01 09:35 | -41.83799 | 174.36423 | 11924 ft | 339 kts | 44° |
| 2026-05-01 09:35 | -41.80588 | 174.40590 | 11233 ft | 307 kts | 42° |
| 2026-05-01 09:35 | -41.79024 | 174.42547 | 10506 ft | 309 kts | 42° |
| 2026-05-01 09:36 | -41.77436 | 174.44492 | 9735 ft | 309 kts | 41° |
| 2026-05-01 09:36 | -41.75894 | 174.46379 | 9505 ft | 291 kts | 41° |
| 2026-05-01 09:36 | -41.74456 | 174.48169 | 9311 ft | 274 kts | 42° |
| 2026-05-01 09:36 | -41.73109 | 174.49876 | 9110 ft | 259 kts | 42° |
| 2026-05-01 09:37 | -41.71844 | 174.51509 | 8882 ft | 247 kts | 43° |
| 2026-05-01 09:37 | -41.69376 | 174.54717 | 7976 ft | 243 kts | 43° |
| 2026-05-01 09:37 | -41.68169 | 174.56262 | 7648 ft | 237 kts | 42° |
| 2026-05-01 09:38 | -41.65871 | 174.59153 | 6910 ft | 215 kts | 41° |
| 2026-05-01 09:38 | -41.64844 | 174.60444 | 6741 ft | 190 kts | 42° |
| 2026-05-01 09:38 | -41.63905 | 174.61638 | 6266 ft | 185 kts | 42° |
| 2026-05-01 09:39 | -41.61988 | 174.64070 | 5155 ft | 198 kts | 40° |
| 2026-05-01 09:39 | -41.60979 | 174.65313 | 4793 ft | 197 kts | 41° |
| 2026-05-01 09:39 | -41.59974 | 174.66569 | 4534 ft | 198 kts | 41° |
| 2026-05-01 09:40 | -41.58985 | 174.67850 | 4281 ft | 198 kts | 43° |
| 2026-05-01 09:40 | -41.57043 | 174.70415 | 3819 ft | 195 kts | 42° |
| 2026-05-01 09:40 | -41.56062 | 174.71675 | 3780 ft | 196 kts | 41° |
| 2026-05-01 09:41 | -41.55060 | 174.72910 | 3746 ft | 196 kts | 40° |
| 2026-05-01 09:41 | -41.53049 | 174.75348 | 3513 ft | 194 kts | 40° |
| 2026-05-01 09:41 | -41.52065 | 174.76585 | 3451 ft | 194 kts | 41° |
| 2026-05-01 09:42 | -41.51411 | 174.77435 | 3405 ft | 194 kts | 42° |
| 2026-05-01 09:42 | -41.50123 | 174.79118 | 3263 ft | 194 kts | 40° |
| 2026-05-01 09:42 | -41.47672 | 174.79915 | 2904 ft | 186 kts | 356° |
| 2026-05-01 09:43 | -41.45551 | 174.79878 | 2404 ft | 182 kts | 0° |
| 2026-05-01 09:43 | -41.44300 | 174.79927 | 2116 ft | 173 kts | 2° |
| 2026-05-01 09:43 | -41.43135 | 174.80006 | 1968 ft | 163 kts | 3° |
| 2026-05-01 09:44 | -41.40919 | 174.80186 | 1408 ft | 156 kts | 2° |
| 2026-05-01 09:44 | -41.39872 | 174.80250 | 1165 ft | 143 kts | 2° |
| 2026-05-01 09:44 | -41.38922 | 174.80320 | 1050 ft | 133 kts | 4° |
| 2026-05-01 09:45 | -41.38007 | 174.80382 | 863 ft | 130 kts | 3° |
| 2026-05-01 09:45 | -41.36230 | 174.80405 | 526 ft | 127 kts | 1° |
| 2026-05-01 09:45 | -41.35358 | 174.80455 | 452 ft | 125 kts | 6° |
| 2026-05-01 09:46 | -41.34491 | 174.80558 | 297 ft | 125 kts | 3° |
| 2026-05-01 09:46 | -41.33621 | 174.80623 | 106 ft | 125 kts | 5° |
| 2026-05-01 09:46 | -41.32720 | 174.80688 | 370 ft | 136 kts | 5° |
| 2026-05-01 09:46 | -41.31747 | 174.80758 | 1004 ft | 142 kts | 4° |
| 2026-05-01 09:47 | -41.30751 | 174.80845 | 1709 ft | 145 kts | 3° |
| 2026-05-01 09:47 | -41.29786 | 174.80945 | 2239 ft | 136 kts | 5° |
| 2026-05-01 09:47 | -41.28804 | 174.81065 | 2526 ft | 144 kts | 3° |
| 2026-05-01 09:47 | -41.27790 | 174.81144 | 2809 ft | 148 kts | 1° |
| 2026-05-01 09:48 | -41.26734 | 174.81233 | 3056 ft | 156 kts | 3° |
| 2026-05-01 09:48 | -41.25638 | 174.81381 | 3286 ft | 161 kts | 5° |
| 2026-05-01 09:48 | -41.24490 | 174.81592 | 3468 ft | 178 kts | 7° |